createdAt,value
2024-04-18T00:00:54.445Z,497.00
2024-04-18T00:01:54.397Z,498.00
2024-04-18T00:02:54.370Z,499.00
2024-04-18T00:03:54.504Z,497.00
2024-04-18T00:04:54.461Z,497.00
2024-04-18T00:05:54.396Z,500.00
2024-04-18T00:06:54.457Z,500.00
2024-04-18T00:07:54.382Z,501.00
2024-04-18T00:08:54.359Z,504.00
2024-04-18T00:09:54.367Z,503.00
2024-04-18T00:10:54.415Z,501.00
2024-04-18T00:11:54.352Z,503.00
2024-04-18T00:12:54.347Z,506.00
2024-04-18T00:13:55.075Z,506.00
2024-04-18T00:14:54.344Z,506.00
2024-04-18T00:15:54.421Z,508.00
2024-04-18T00:16:54.325Z,508.00
2024-04-18T00:17:54.747Z,508.00
2024-04-18T00:18:54.384Z,507.00
2024-04-18T00:19:54.335Z,504.00
2024-04-18T00:20:54.332Z,505.00
2024-04-18T00:21:54.326Z,504.00
2024-04-18T00:22:54.336Z,503.00
2024-04-18T00:23:54.316Z,506.00
2024-04-18T00:24:54.413Z,508.00
2024-04-18T00:25:54.291Z,506.00
2024-04-18T00:26:54.282Z,505.00
2024-04-18T00:27:54.288Z,506.00
2024-04-18T00:28:54.284Z,504.00
2024-04-18T00:29:54.285Z,502.00
2024-04-18T00:30:54.389Z,500.00
2024-04-18T00:31:54.346Z,500.00
2024-04-18T00:32:54.367Z,499.00
2024-04-18T00:33:54.387Z,502.00
2024-04-18T00:34:54.328Z,500.00
2024-04-18T00:35:54.347Z,499.00
2024-04-18T00:36:54.341Z,501.00
2024-04-18T00:37:54.346Z,499.00
2024-04-18T00:38:54.479Z,504.00
2024-04-18T00:39:54.407Z,502.00
2024-04-18T00:40:54.374Z,499.00
2024-04-18T00:41:54.366Z,499.00
2024-04-18T00:42:54.377Z,500.00
2024-04-18T00:43:54.355Z,500.00
2024-04-18T00:44:54.347Z,501.00
2024-04-18T00:45:54.424Z,500.00
2024-04-18T00:46:54.352Z,501.00
2024-04-18T00:47:54.536Z,499.00
2024-04-18T00:48:54.461Z,497.00
2024-04-18T00:49:54.359Z,499.00
2024-04-18T00:50:54.377Z,498.00
2024-04-18T00:51:54.367Z,499.00
2024-04-18T00:52:54.383Z,501.00
2024-04-18T00:53:54.366Z,502.00
2024-04-18T00:54:54.471Z,501.00
2024-04-18T00:55:54.394Z,501.00
2024-04-18T00:56:54.396Z,500.00
2024-04-18T00:57:54.405Z,498.00
2024-04-18T00:58:54.427Z,498.00
2024-04-18T00:59:54.448Z,500.00
2024-04-18T01:00:54.567Z,505.00
2024-04-18T01:01:54.471Z,504.00
2024-04-18T01:02:54.462Z,503.00
2024-04-18T01:03:54.621Z,501.00
2024-04-18T01:04:54.508Z,500.00
2024-04-18T01:05:54.491Z,503.00
2024-04-18T01:06:54.508Z,506.00
2024-04-18T01:07:54.483Z,506.00
2024-04-18T01:08:54.484Z,506.00
2024-04-18T01:09:54.501Z,505.00
2024-04-18T01:10:54.485Z,503.00
2024-04-18T01:11:54.564Z,504.00
2024-04-18T01:12:54.514Z,505.00
2024-04-18T01:13:54.490Z,503.00
2024-04-18T01:14:54.499Z,502.00
2024-04-18T01:15:54.547Z,500.00
2024-04-18T01:16:54.513Z,502.00
2024-04-18T01:17:54.680Z,501.00
2024-04-18T01:18:54.544Z,503.00
2024-04-18T01:19:54.526Z,507.00
2024-04-18T01:20:54.541Z,504.00
2024-04-18T01:21:54.587Z,506.00
2024-04-18T01:22:54.546Z,504.00
2024-04-18T01:23:54.571Z,505.00
2024-04-18T01:24:54.553Z,502.00
2024-04-18T01:25:54.536Z,502.00
2024-04-18T01:26:54.550Z,499.00
2024-04-18T01:27:54.526Z,498.00
2024-04-18T01:28:54.522Z,498.00
2024-04-18T01:29:54.554Z,499.00
2024-04-18T01:30:54.570Z,499.00
2024-04-18T01:31:54.547Z,498.00
2024-04-18T01:32:54.609Z,494.00
2024-04-18T01:33:54.580Z,495.00
2024-04-18T01:34:54.524Z,494.00
2024-04-18T01:35:54.541Z,494.00
2024-04-18T01:36:54.595Z,495.00
2024-04-18T01:37:54.522Z,496.00
2024-04-18T01:38:54.553Z,495.00
2024-04-18T01:39:54.527Z,495.00
2024-04-18T01:40:54.476Z,497.00
2024-04-18T01:41:54.500Z,497.00
2024-04-18T01:42:54.494Z,499.00
2024-04-18T01:43:54.486Z,500.00
2024-04-18T01:44:54.501Z,500.00
2024-04-18T01:45:54.490Z,502.00
2024-04-18T01:46:54.471Z,500.00
2024-04-18T01:47:54.561Z,501.00
2024-04-18T01:48:54.499Z,502.00
2024-04-18T01:49:54.483Z,502.00
2024-04-18T01:50:54.482Z,503.00
2024-04-18T01:51:54.482Z,504.00
2024-04-18T01:52:54.443Z,502.00
2024-04-18T01:53:54.472Z,500.00
2024-04-18T01:54:54.448Z,500.00
2024-04-18T01:55:54.448Z,500.00
2024-04-18T01:56:54.414Z,501.00
2024-04-18T01:57:54.424Z,501.00
2024-04-18T01:58:54.419Z,501.00
2024-04-18T01:59:54.414Z,501.00
2024-04-18T02:00:54.456Z,503.00
2024-04-18T02:01:54.389Z,502.00
2024-04-18T02:02:54.432Z,501.00
2024-04-18T02:03:54.411Z,501.00
2024-04-18T02:04:54.391Z,499.00
2024-04-18T02:05:54.401Z,499.00
2024-04-18T02:06:54.422Z,497.00
2024-04-18T02:07:54.450Z,496.00
2024-04-18T02:08:54.427Z,500.00
2024-04-18T02:09:54.507Z,501.00
2024-04-18T02:10:54.498Z,501.00
2024-04-18T02:11:54.497Z,501.00
2024-04-18T02:12:54.517Z,502.00
2024-04-18T02:13:54.528Z,504.00
2024-04-18T02:14:54.512Z,505.00
2024-04-18T02:15:54.523Z,505.00
2024-04-18T02:16:54.546Z,505.00
2024-04-18T02:17:54.629Z,505.00
2024-04-18T02:18:54.677Z,505.00
2024-04-18T02:19:54.590Z,502.00
2024-04-18T02:20:54.613Z,503.00
2024-04-18T02:21:54.656Z,500.00
2024-04-18T02:22:54.628Z,499.00
2024-04-18T02:23:54.649Z,498.00
2024-04-18T02:24:54.624Z,498.00
2024-04-18T02:25:54.647Z,499.00
2024-04-18T02:26:54.643Z,500.00
2024-04-18T02:27:54.683Z,500.00
2024-04-18T02:28:54.604Z,501.00
2024-04-18T02:29:54.611Z,502.00
2024-04-18T02:30:54.675Z,499.00
2024-04-18T02:31:54.746Z,496.00
2024-04-18T02:32:54.639Z,497.00
2024-04-18T02:33:54.686Z,500.00
2024-04-18T02:34:54.603Z,501.00
2024-04-18T02:35:54.616Z,502.00
2024-04-18T02:36:54.660Z,499.00
2024-04-18T02:37:54.593Z,497.00
2024-04-18T02:38:54.640Z,497.00
2024-04-18T02:39:54.632Z,497.00
2024-04-18T02:40:54.642Z,495.00
2024-04-18T02:41:54.586Z,493.00
2024-04-18T02:42:54.604Z,495.00
2024-04-18T02:43:54.705Z,495.00
2024-04-18T02:44:54.583Z,494.00
2024-04-18T02:45:54.640Z,494.00
2024-04-18T02:46:54.603Z,493.00
2024-04-18T02:47:54.792Z,492.00
2024-04-18T02:48:54.670Z,492.00
2024-04-18T02:49:54.611Z,491.00
2024-04-18T02:50:54.646Z,489.00
2024-04-18T02:51:54.690Z,488.00
2024-04-18T02:52:54.656Z,489.00
2024-04-18T02:53:54.690Z,492.00
2024-04-18T02:54:54.719Z,493.00
2024-04-18T02:55:54.709Z,493.00
2024-04-18T02:56:54.680Z,496.00
2024-04-18T02:57:54.702Z,496.00
2024-04-18T02:58:54.688Z,497.00
2024-04-18T02:59:54.677Z,501.00
2024-04-18T03:00:54.718Z,501.00
2024-04-18T03:01:54.662Z,501.00
2024-04-18T03:02:54.786Z,503.00
2024-04-18T03:03:54.763Z,504.00
2024-04-18T03:04:54.656Z,505.00
2024-04-18T03:05:54.683Z,505.00
2024-04-18T03:06:54.647Z,504.00
2024-04-18T03:07:54.670Z,503.00
2024-04-18T03:08:54.649Z,503.00
2024-04-18T03:09:54.668Z,504.00
2024-04-18T03:10:54.657Z,506.00
2024-04-18T03:11:54.660Z,505.00
2024-04-18T03:12:54.668Z,501.00
2024-04-18T03:13:54.648Z,501.00
2024-04-18T03:14:54.644Z,501.00
2024-04-18T03:15:54.811Z,499.00
2024-04-18T03:16:54.635Z,500.00
2024-04-18T03:17:54.826Z,502.00
2024-04-18T03:18:54.695Z,500.00
2024-04-18T03:19:54.643Z,501.00
2024-04-18T03:20:54.644Z,503.00
2024-04-18T03:21:54.818Z,503.00
2024-04-18T03:22:54.676Z,501.00
2024-04-18T03:23:54.699Z,502.00
2024-04-18T03:24:54.752Z,504.00
2024-04-18T03:25:54.821Z,503.00
2024-04-18T03:26:54.816Z,503.00
2024-04-18T03:27:54.858Z,501.00
2024-04-18T03:28:54.824Z,501.00
2024-04-18T03:29:54.828Z,502.00
2024-04-18T03:30:54.851Z,503.00
2024-04-18T03:31:54.864Z,503.00
2024-04-18T03:32:54.910Z,504.00
2024-04-18T03:33:54.903Z,506.00
2024-04-18T03:34:54.856Z,507.00
2024-04-18T03:35:54.877Z,509.00
2024-04-18T03:36:54.923Z,514.00
2024-04-18T03:37:54.892Z,517.00
2024-04-18T03:38:54.947Z,513.00
2024-04-18T03:39:55.040Z,513.00
2024-04-18T03:40:55.048Z,510.00
2024-04-18T03:41:55.163Z,509.00
2024-04-18T03:42:55.212Z,510.00
2024-04-18T03:43:55.260Z,508.00
2024-04-18T03:44:55.435Z,506.00
2024-04-18T03:45:55.408Z,506.00
2024-04-18T03:46:55.436Z,505.00
2024-04-18T03:47:55.608Z,506.00
2024-04-18T03:48:55.619Z,506.00
2024-04-18T03:49:55.653Z,505.00
2024-04-18T03:50:55.735Z,505.00
2024-04-18T03:51:55.844Z,503.00
2024-04-18T03:52:55.852Z,501.00
2024-04-18T03:53:55.941Z,500.00
2024-04-18T03:55:01.948Z,499.00
2024-04-18T03:55:57.018Z,501.00
2024-04-18T03:56:56.031Z,501.00
2024-04-18T03:57:56.071Z,501.00
2024-04-18T03:58:56.078Z,502.00
2024-04-18T03:59:56.043Z,504.00
2024-04-18T04:00:56.152Z,504.00
2024-04-18T04:01:56.054Z,505.00
2024-04-18T04:02:56.059Z,505.00
2024-04-18T04:03:56.212Z,502.00
2024-04-18T04:04:56.205Z,502.00
2024-04-18T04:05:56.297Z,503.00
2024-04-18T04:06:56.389Z,503.00
2024-04-18T04:07:56.418Z,506.00
2024-04-18T04:08:56.416Z,507.00
2024-04-18T04:09:56.522Z,506.00
2024-04-18T04:10:56.467Z,504.00
2024-04-18T04:11:56.471Z,503.00
2024-04-18T04:12:56.523Z,502.00
2024-04-18T04:14:00.236Z,502.00
2024-04-18T04:14:56.494Z,503.00
2024-04-18T04:15:56.534Z,504.00
2024-04-18T04:16:56.506Z,503.00
2024-04-18T04:17:56.609Z,503.00
2024-04-18T04:18:56.819Z,501.00
2024-04-18T04:19:56.547Z,500.00
2024-04-18T04:20:56.562Z,501.00
2024-04-18T04:21:56.645Z,501.00
2024-04-18T04:22:56.600Z,497.00
2024-04-18T04:23:56.610Z,496.00
2024-04-18T04:24:57.565Z,495.00
2024-04-18T04:25:56.609Z,492.00
2024-04-18T04:26:56.614Z,491.00
2024-04-18T04:27:56.697Z,492.00
2024-04-18T04:28:56.630Z,490.00
2024-04-18T04:29:56.644Z,491.00
2024-04-18T04:30:56.774Z,494.00
2024-04-18T04:31:56.742Z,493.00
2024-04-18T04:32:56.696Z,492.00
2024-04-18T04:33:56.703Z,495.00
2024-04-18T04:34:56.702Z,495.00
2024-04-18T04:35:56.715Z,495.00
2024-04-18T04:37:04.075Z,497.00
2024-04-18T04:38:04.044Z,496.00
2024-04-18T04:39:04.034Z,496.00
2024-04-18T04:40:04.051Z,491.00
2024-04-18T04:41:04.040Z,489.00
2024-04-18T04:42:04.044Z,489.00
2024-04-18T04:43:04.142Z,488.00
2024-04-18T04:44:04.064Z,486.00
2024-04-18T04:45:04.094Z,485.00
2024-04-18T04:46:04.056Z,485.00
2024-04-18T04:47:04.055Z,485.00
2024-04-18T04:48:04.116Z,485.00
2024-04-18T04:49:04.113Z,489.00
2024-04-18T04:50:04.061Z,491.00
2024-04-18T04:51:04.070Z,492.00
2024-04-18T04:52:04.094Z,493.00
2024-04-18T04:53:04.070Z,492.00
2024-04-18T04:54:04.050Z,495.00
2024-04-18T04:55:04.079Z,493.00
2024-04-18T04:56:04.123Z,492.00
2024-04-18T04:57:04.083Z,492.00
2024-04-18T04:58:04.086Z,490.00
2024-04-18T04:59:04.095Z,492.00
2024-04-18T05:00:04.164Z,490.00
2024-04-18T05:01:04.219Z,489.00
2024-04-18T05:02:04.118Z,487.00
2024-04-18T05:03:04.131Z,489.00
2024-04-18T05:04:04.155Z,490.00
2024-04-18T05:05:04.133Z,490.00
2024-04-18T05:06:04.135Z,490.00
2024-04-18T05:07:04.146Z,490.00
2024-04-18T05:08:04.168Z,493.00
2024-04-18T05:09:04.146Z,495.00
2024-04-18T05:10:04.201Z,496.00
2024-04-18T05:11:04.251Z,498.00
2024-04-18T05:12:04.183Z,496.00
2024-04-18T05:13:04.185Z,496.00
2024-04-18T05:14:04.196Z,495.00
2024-04-18T05:15:04.187Z,495.00
2024-04-18T05:16:04.293Z,497.00
2024-04-18T05:17:04.210Z,497.00
2024-04-18T05:18:04.301Z,497.00
2024-04-18T05:19:04.266Z,497.00
2024-04-18T05:20:04.280Z,497.00
2024-04-18T05:21:04.347Z,498.00
2024-04-18T05:22:04.280Z,498.00
2024-04-18T05:23:04.287Z,498.00
2024-04-18T05:24:04.308Z,497.00
2024-04-18T05:25:04.310Z,499.00
2024-04-18T05:26:04.332Z,500.00
2024-04-18T05:27:04.341Z,498.00
2024-04-18T05:28:04.377Z,501.00
2024-04-18T05:29:04.338Z,498.00
2024-04-18T05:30:04.558Z,500.00
2024-04-18T05:31:04.687Z,501.00
2024-04-18T05:32:04.391Z,501.00
2024-04-18T05:33:04.439Z,500.00
2024-04-18T05:34:04.531Z,498.00
2024-04-18T05:35:04.367Z,499.00
2024-04-18T05:36:04.756Z,498.00
2024-04-18T05:37:04.354Z,496.00
2024-04-18T05:38:04.350Z,495.00
2024-04-18T05:39:04.342Z,498.00
2024-04-18T05:40:04.468Z,498.00
2024-04-18T05:41:04.353Z,497.00
2024-04-18T05:42:04.375Z,498.00
2024-04-18T05:43:04.344Z,497.00
2024-04-18T05:44:04.390Z,498.00
2024-04-18T05:45:04.414Z,500.00
2024-04-18T05:46:04.757Z,498.00
2024-04-18T05:47:05.187Z,498.00
2024-04-18T05:48:04.560Z,495.00
2024-04-18T05:49:04.562Z,492.00
2024-04-18T05:50:04.574Z,494.00
2024-04-18T05:51:04.615Z,495.00
2024-04-18T05:52:04.650Z,497.00
2024-04-18T05:53:04.804Z,497.00
2024-04-18T05:54:04.716Z,495.00
2024-04-18T05:55:04.739Z,492.00
2024-04-18T05:56:04.807Z,493.00
2024-04-18T05:57:04.803Z,493.00
2024-04-18T05:58:04.863Z,494.00
2024-04-18T05:59:04.866Z,492.00
2024-04-18T06:00:04.882Z,495.00
2024-04-18T06:01:05.130Z,493.00
2024-04-18T06:02:04.982Z,489.00
2024-04-18T06:03:05.025Z,490.00
2024-04-18T06:04:05.103Z,490.00
2024-04-18T06:05:05.198Z,489.00
2024-04-18T06:06:05.082Z,489.00
2024-04-18T06:07:05.108Z,492.00
2024-04-18T06:08:05.142Z,490.00
2024-04-18T06:09:05.217Z,487.00
2024-04-18T06:10:05.248Z,490.00
2024-04-18T06:11:05.312Z,488.00
2024-04-18T06:12:05.270Z,488.00
2024-04-18T06:13:05.288Z,486.00
2024-04-18T06:14:06.169Z,486.00
2024-04-18T06:15:05.364Z,487.00
2024-04-18T06:16:05.481Z,489.00
2024-04-18T06:17:05.467Z,490.00
2024-04-18T06:18:05.496Z,492.00
2024-04-18T06:19:05.503Z,492.00
2024-04-18T06:20:05.558Z,497.00
2024-04-18T06:21:05.551Z,498.00
2024-04-18T06:22:05.561Z,498.00
2024-04-18T06:23:05.753Z,497.00
2024-04-18T06:24:05.545Z,495.00
2024-04-18T06:25:05.646Z,494.00
2024-04-18T06:26:05.581Z,495.00
2024-04-18T06:27:05.554Z,493.00
2024-04-18T06:28:05.593Z,491.00
2024-04-18T06:29:05.567Z,490.00
2024-04-18T06:30:05.566Z,488.00
2024-04-18T06:31:06.918Z,487.00
2024-04-18T06:32:05.598Z,486.00
2024-04-18T06:33:05.681Z,488.00
2024-04-18T06:34:05.817Z,487.00
2024-04-18T06:35:05.597Z,488.00
2024-04-18T06:36:05.605Z,489.00
2024-04-18T06:37:08.014Z,488.00
2024-04-18T06:38:05.877Z,488.00
2024-04-18T06:39:05.926Z,487.00
2024-04-18T06:40:05.974Z,486.00
2024-04-18T06:41:05.983Z,485.00
2024-04-18T06:42:06.014Z,486.00
2024-04-18T06:43:06.011Z,487.00
2024-04-18T06:44:06.116Z,491.00
2024-04-18T06:45:06.090Z,493.00
2024-04-18T06:46:06.129Z,493.00
2024-04-18T06:47:06.203Z,491.00
2024-04-18T06:48:06.299Z,492.00
2024-04-18T06:49:06.238Z,492.00
2024-04-18T06:50:06.244Z,493.00
2024-04-18T06:51:06.311Z,493.00
2024-04-18T06:52:06.325Z,495.00
2024-04-18T06:53:06.389Z,493.00
2024-04-18T06:54:06.431Z,493.00
2024-04-18T06:55:06.475Z,492.00
2024-04-18T06:56:06.491Z,492.00
2024-04-18T06:57:06.495Z,492.00
2024-04-18T06:58:06.599Z,494.00
2024-04-18T06:59:06.496Z,495.00
2024-04-18T07:00:06.529Z,495.00
2024-04-18T07:01:06.730Z,493.00
2024-04-18T07:02:06.511Z,493.00
2024-04-18T07:03:06.556Z,491.00
2024-04-18T07:04:06.632Z,488.00
2024-04-18T07:05:06.557Z,488.00
2024-04-18T07:06:06.489Z,487.00
2024-04-18T07:07:06.509Z,487.00
2024-04-18T07:08:07.276Z,485.00
2024-04-18T07:09:06.516Z,486.00
2024-04-18T07:10:06.526Z,485.00
2024-04-18T07:11:06.526Z,488.00
2024-04-18T07:12:06.486Z,488.00
2024-04-18T07:13:06.573Z,488.00
2024-04-18T07:14:06.531Z,484.00
2024-04-18T07:15:06.464Z,483.00
2024-04-18T07:16:06.461Z,483.00
2024-04-18T07:17:06.743Z,484.00
2024-04-18T07:18:06.604Z,484.00
2024-04-18T07:19:06.495Z,483.00
2024-04-18T07:20:06.515Z,483.00
2024-04-18T07:21:06.543Z,484.00
2024-04-18T07:22:06.620Z,484.00
2024-04-18T07:23:06.549Z,484.00
2024-04-18T07:24:06.521Z,482.00
2024-04-18T07:25:06.583Z,484.00
2024-04-18T07:26:06.507Z,484.00
2024-04-18T07:27:06.612Z,484.00
2024-04-18T07:28:06.499Z,482.00
2024-04-18T07:29:06.490Z,483.00
2024-04-18T07:30:06.520Z,483.00
2024-04-18T07:31:06.482Z,484.00
2024-04-18T07:32:06.470Z,481.00
2024-04-18T07:33:06.500Z,481.00
2024-04-18T07:34:06.479Z,484.00
2024-04-18T07:35:06.561Z,484.00
2024-04-18T07:36:06.454Z,483.00
2024-04-18T07:37:06.534Z,482.00
2024-04-18T07:38:06.466Z,481.00
2024-04-18T07:39:06.481Z,482.00
2024-04-18T07:40:06.530Z,483.00
2024-04-18T07:41:06.534Z,483.00
2024-04-18T07:42:06.542Z,482.00
2024-04-18T07:43:06.529Z,483.00
2024-04-18T07:44:06.524Z,483.00
2024-04-18T07:45:06.519Z,483.00
2024-04-18T07:46:06.570Z,485.00
2024-04-18T07:47:06.636Z,485.00
2024-04-18T07:48:06.721Z,486.00
2024-04-18T07:49:06.538Z,490.00
2024-04-18T07:50:06.499Z,490.00
2024-04-18T07:51:06.517Z,493.00
2024-04-18T07:52:12.499Z,492.00
2024-04-18T07:53:10.003Z,490.00
2024-04-18T07:54:06.555Z,490.00
2024-04-18T07:55:06.534Z,491.00
2024-04-18T07:56:06.930Z,487.00
2024-04-18T07:57:06.958Z,488.00
2024-04-18T07:58:07.541Z,487.00
2024-04-18T07:59:07.058Z,485.00
2024-04-18T08:00:07.319Z,485.00
2024-04-18T08:01:07.701Z,485.00
2024-04-18T08:02:08.561Z,485.00
2024-04-18T08:03:08.004Z,485.00
2024-04-18T08:04:27.110Z,484.00
2024-04-18T08:05:09.982Z,481.00
2024-04-18T08:06:09.325Z,479.00
2024-04-18T08:07:09.522Z,480.00
2024-04-18T08:08:10.470Z,481.00
2024-04-18T08:09:09.799Z,483.00
2024-04-18T08:10:10.541Z,481.00
2024-04-18T08:11:25.651Z,480.00
2024-04-18T08:13:10.407Z,482.00
2024-04-18T08:14:10.731Z,483.00
2024-04-18T08:15:11.177Z,482.00
2024-04-18T08:16:07.332Z,485.00
2024-04-18T08:17:06.493Z,485.00
2024-04-18T08:18:06.330Z,487.00
2024-04-18T08:19:06.315Z,485.00
2024-04-18T08:20:06.347Z,487.00
2024-04-18T08:21:06.377Z,486.00
2024-04-18T08:22:06.339Z,488.00
2024-04-18T08:23:06.609Z,488.00
2024-04-18T08:24:06.331Z,488.00
2024-04-18T08:25:07.223Z,484.00
2024-04-18T08:26:06.311Z,486.00
2024-04-18T08:27:06.414Z,485.00
2024-04-18T08:28:06.328Z,484.00
2024-04-18T08:29:06.336Z,483.00
2024-04-18T08:30:06.359Z,483.00
2024-04-18T08:31:06.335Z,485.00
2024-04-18T08:32:06.434Z,485.00
2024-04-18T08:33:06.418Z,481.00
2024-04-18T08:34:11.761Z,479.00
2024-04-18T08:35:07.330Z,479.00
2024-04-18T08:36:06.378Z,478.00
2024-04-18T08:37:07.144Z,476.00
2024-04-18T08:38:06.334Z,477.00
2024-04-18T08:39:06.393Z,476.00
2024-04-18T08:40:06.307Z,478.00
2024-04-18T08:41:07.374Z,479.00
2024-04-18T08:42:06.395Z,476.00
2024-04-18T08:43:06.300Z,477.00
2024-04-18T08:44:06.343Z,478.00
2024-04-18T08:45:07.296Z,479.00
2024-04-18T08:46:07.700Z,482.00
2024-04-18T08:47:06.380Z,483.00
2024-04-18T08:48:06.517Z,486.00
2024-04-18T08:49:07.406Z,487.00
2024-04-18T08:50:06.351Z,488.00
2024-04-18T08:51:06.433Z,488.00
2024-04-18T08:52:06.775Z,487.00
2024-04-18T08:53:06.415Z,484.00
2024-04-18T08:54:06.648Z,484.00
2024-04-18T08:55:06.632Z,483.00
2024-04-18T08:56:06.603Z,481.00
2024-04-18T08:57:06.600Z,484.00
2024-04-18T08:58:06.635Z,483.00
2024-04-18T08:59:06.735Z,485.00
2024-04-18T09:00:06.740Z,484.00
2024-04-18T09:01:06.731Z,486.00
2024-04-18T09:02:06.742Z,487.00
2024-04-18T09:03:06.839Z,487.00
2024-04-18T09:04:06.874Z,488.00
2024-04-18T09:05:06.833Z,487.00
2024-04-18T09:06:06.922Z,486.00
2024-04-18T09:07:06.935Z,485.00
2024-04-18T09:08:07.022Z,485.00
2024-04-18T09:09:06.968Z,484.00
2024-04-18T09:10:06.963Z,481.00
2024-04-18T09:11:07.111Z,478.00
2024-04-18T09:12:07.685Z,480.00
2024-04-18T09:13:07.645Z,480.00
2024-04-18T09:14:07.089Z,480.00
2024-04-18T09:15:07.179Z,480.00
2024-04-18T09:16:07.168Z,479.00
2024-04-18T09:17:07.139Z,475.00
2024-04-18T09:18:07.348Z,473.00
2024-04-18T09:19:08.687Z,474.00
2024-04-18T09:20:07.178Z,475.00
2024-04-18T09:21:07.133Z,476.00
2024-04-18T09:22:07.107Z,475.00
2024-04-18T09:23:07.124Z,475.00
2024-04-18T09:24:07.909Z,475.00
2024-04-18T09:25:07.106Z,475.00
2024-04-18T09:26:07.139Z,474.00
2024-04-18T09:27:07.160Z,474.00
2024-04-18T09:28:07.113Z,474.00
2024-04-18T09:29:07.104Z,474.00
2024-04-18T09:30:07.103Z,475.00
2024-04-18T09:31:07.199Z,477.00
2024-04-18T09:32:07.130Z,476.00
2024-04-18T09:33:07.903Z,472.00
2024-04-18T09:34:07.994Z,471.00
2024-04-18T09:35:07.067Z,469.00
2024-04-18T09:36:07.115Z,471.00
2024-04-18T09:37:07.036Z,472.00
2024-04-18T09:38:10.212Z,472.00
2024-04-18T09:39:07.765Z,473.00
2024-04-18T09:40:07.112Z,473.00
2024-04-18T09:41:06.987Z,471.00
2024-04-18T09:42:07.288Z,470.00
2024-04-18T09:43:07.088Z,473.00
2024-04-18T09:44:06.944Z,473.00
2024-04-18T09:45:06.973Z,473.00
2024-04-18T09:46:06.916Z,474.00
2024-04-18T09:47:06.939Z,474.00
2024-04-18T09:48:07.075Z,474.00
2024-04-18T09:49:06.983Z,475.00
2024-04-18T09:50:06.890Z,476.00
2024-04-18T09:51:06.893Z,475.00
2024-04-18T09:52:06.854Z,478.00
2024-04-18T09:53:06.859Z,478.00
2024-04-18T09:54:06.860Z,479.00
2024-04-18T09:55:06.799Z,481.00
2024-04-18T09:56:06.802Z,482.00
2024-04-18T09:57:06.803Z,483.00
2024-04-18T09:58:06.759Z,481.00
2024-04-18T09:59:06.796Z,486.00
2024-04-18T10:00:06.860Z,490.00
2024-04-18T10:01:06.895Z,493.00
2024-04-18T10:02:07.671Z,494.00
2024-04-18T10:03:07.026Z,495.00
2024-04-18T10:04:07.122Z,496.00
2024-04-18T10:05:07.026Z,499.00
2024-04-18T10:06:07.111Z,501.00
2024-04-18T10:07:07.329Z,502.00
2024-04-18T10:08:07.120Z,503.00
2024-04-18T10:09:07.309Z,504.00
2024-04-18T10:10:07.221Z,504.00
2024-04-18T10:11:07.262Z,505.00
2024-04-18T10:12:07.319Z,509.00
2024-04-18T10:13:07.338Z,511.00
2024-04-18T10:14:07.395Z,512.00
2024-04-18T10:15:07.481Z,513.00
2024-04-18T10:16:07.472Z,512.00
2024-04-18T10:17:07.611Z,516.00
2024-04-18T10:18:07.686Z,516.00
2024-04-18T10:19:07.653Z,519.00
2024-04-18T10:20:07.672Z,519.00
2024-04-18T10:21:07.776Z,523.00
2024-04-18T10:22:17.604Z,523.00
2024-04-18T10:23:08.702Z,525.00
2024-04-18T10:24:07.661Z,523.00
2024-04-18T10:25:07.606Z,525.00
2024-04-18T10:26:07.593Z,526.00
2024-04-18T10:27:07.598Z,526.00
2024-04-18T10:28:07.559Z,525.00
2024-04-18T10:29:07.520Z,525.00
2024-04-18T10:30:07.547Z,524.00
2024-04-18T10:31:08.723Z,528.00
2024-04-18T10:32:07.487Z,528.00
2024-04-18T10:33:07.562Z,530.00
2024-04-18T10:34:07.428Z,531.00
2024-04-18T10:35:07.403Z,530.00
2024-04-18T10:36:07.407Z,533.00
2024-04-18T10:37:07.802Z,535.00
2024-04-18T10:38:07.410Z,537.00
2024-04-18T10:39:07.531Z,537.00
2024-04-18T10:40:07.447Z,532.00
2024-04-18T10:41:07.484Z,527.00
2024-04-18T10:42:07.612Z,520.00
2024-04-18T10:43:09.278Z,505.00
2024-04-18T10:44:07.607Z,505.00
2024-04-18T10:45:07.691Z,507.00
2024-04-18T10:46:07.739Z,508.00
2024-04-18T10:47:07.908Z,506.00
2024-04-18T10:48:07.980Z,505.00
2024-04-18T10:49:07.992Z,505.00
2024-04-18T10:50:08.784Z,502.00
2024-04-18T10:51:08.093Z,502.00
2024-04-18T10:52:08.088Z,519.00
2024-04-18T10:53:08.150Z,508.00
2024-04-18T10:54:08.174Z,502.00
2024-04-18T10:55:08.145Z,500.00
2024-04-18T10:56:08.336Z,499.00
2024-04-18T10:57:08.191Z,499.00
2024-04-18T10:58:08.305Z,500.00
2024-04-18T10:59:08.267Z,499.00
2024-04-18T11:00:08.396Z,496.00
2024-04-18T11:01:08.427Z,493.00
2024-04-18T11:02:08.504Z,492.00
2024-04-18T11:03:08.573Z,487.00
2024-04-18T11:04:08.459Z,486.00
2024-04-18T11:05:08.484Z,487.00
2024-04-18T11:06:08.512Z,489.00
2024-04-18T11:07:08.528Z,492.00
2024-04-18T11:08:08.512Z,491.00
2024-04-18T11:09:08.525Z,485.00
2024-04-18T11:10:08.539Z,482.00
2024-04-18T11:11:08.552Z,480.00
2024-04-18T11:12:08.659Z,478.00
2024-04-18T11:13:08.619Z,471.00
2024-04-18T11:14:10.218Z,471.00
2024-04-18T11:15:08.697Z,469.00
2024-04-18T11:16:08.688Z,469.00
2024-04-18T11:17:08.752Z,470.00
2024-04-18T11:18:08.899Z,474.00
2024-04-18T11:19:08.838Z,470.00
2024-04-18T11:20:08.824Z,473.00
2024-04-18T11:21:08.854Z,468.00
2024-04-18T11:22:09.039Z,471.00
2024-04-18T11:23:14.929Z,473.00
2024-04-18T11:24:10.004Z,474.00
2024-04-18T11:25:08.970Z,477.00
2024-04-18T11:26:09.162Z,480.00
2024-04-18T11:27:09.077Z,481.00
2024-04-18T11:28:09.035Z,482.00
2024-04-18T11:29:09.725Z,486.00
2024-04-18T11:30:09.122Z,489.00
2024-04-18T11:31:09.207Z,492.00
2024-04-18T11:32:09.154Z,495.00
2024-04-18T11:33:09.198Z,496.00
2024-04-18T11:34:09.131Z,496.00
2024-04-18T11:35:16.762Z,494.00
2024-04-18T11:36:10.168Z,492.00
2024-04-18T11:37:09.194Z,493.00
2024-04-18T11:38:09.168Z,493.00
2024-04-18T11:39:09.168Z,494.00
2024-04-18T11:40:09.137Z,495.00
2024-04-18T11:41:09.220Z,494.00
2024-04-18T11:42:09.272Z,494.00
2024-04-18T11:43:09.123Z,498.00
2024-04-18T11:44:09.112Z,500.00
2024-04-18T11:45:09.163Z,503.00
2024-04-18T11:46:09.088Z,505.00
2024-04-18T11:47:09.102Z,505.00
2024-04-18T11:48:09.269Z,507.00
2024-04-18T11:49:09.170Z,507.00
2024-04-18T11:50:09.121Z,508.00
2024-04-18T11:51:09.043Z,509.00
2024-04-18T11:52:09.018Z,508.00
2024-04-18T11:53:09.002Z,507.00
2024-04-18T11:54:09.053Z,506.00
2024-04-18T11:55:09.007Z,509.00
2024-04-18T11:56:08.955Z,505.00
2024-04-18T11:57:09.004Z,506.00
2024-04-18T11:58:08.962Z,507.00
2024-04-18T11:59:08.919Z,509.00
2024-04-18T12:00:08.935Z,509.00
2024-04-18T12:01:08.908Z,510.00
2024-04-18T12:02:08.908Z,512.00
2024-04-18T12:03:08.955Z,513.00
2024-04-18T12:04:09.096Z,511.00
2024-04-18T12:05:08.907Z,508.00
2024-04-18T12:06:08.952Z,507.00
2024-04-18T12:07:08.914Z,506.00
2024-04-18T12:08:09.039Z,505.00
2024-04-18T12:09:09.058Z,505.00
2024-04-18T12:10:09.073Z,505.00
2024-04-18T12:11:09.130Z,505.00
2024-04-18T12:12:09.207Z,504.00
2024-04-18T12:13:09.214Z,505.00
2024-04-18T12:14:09.856Z,506.00
2024-04-18T12:15:09.474Z,507.00
2024-04-18T12:16:09.476Z,508.00
2024-04-18T12:17:09.439Z,505.00
2024-04-18T12:18:09.507Z,504.00
2024-04-18T12:19:09.550Z,502.00
2024-04-18T12:20:09.584Z,500.00
2024-04-18T12:21:09.652Z,499.00
2024-04-18T12:22:09.698Z,498.00
2024-04-18T12:23:09.763Z,498.00
2024-04-18T12:24:09.835Z,499.00
2024-04-18T12:25:09.814Z,502.00
2024-04-18T12:26:09.864Z,504.00
2024-04-18T12:27:10.037Z,504.00
2024-04-18T12:28:09.950Z,505.00
2024-04-18T12:29:10.002Z,506.00
2024-04-18T12:30:10.031Z,504.00